Time;durP1;ratioP1;P1;durP2;ratioP2;P2;SDS_P1;SDS_P2;PMS_P1;PMS_P2;Temp;Humidity;BMP_temperature;BMP_pressure;BME280_temperature;BME280_humidity;BME280_pressure;Samples;Min_cycle;Max_cycle;Signal;HPM_P1;HPM_P2
2024/03/12 00:02:07;;;;;;;42.47;17.60;;;;;;;;;;5050249;28;20020;-69
2024/03/12 00:04:52;;;;;;;39.92;16.55;;;;;;;;;;5054656;28;20402;-68
2024/03/12 00:07:38;;;;;;;46.20;17.42;;;;;;;;;;5073721;28;20047;-69
2024/03/12 00:10:24;;;;;;;45.15;17.27;;;;;;;;;;5072639;28;20022;-69
2024/03/12 00:13:11;;;;;;;48.45;17.02;;;;;;;;;;5075446;28;20381;-68
2024/03/12 00:16:00;;;;;;;44.63;19.17;;;;;;;;;;5073972;28;20059;-68
2024/03/12 00:18:47;;;;;;;52.13;19.08;;;;;;;;;;5069840;28;20037;-69
2024/03/12 00:21:35;;;;;;;47.88;18.15;;;;;;;;;;5088163;28;20024;-69
2024/03/12 00:24:22;;;;;;;47.00;20.20;;;;;;;;;;5086045;28;20090;-69
2024/03/12 00:27:09;;;;;;;44.97;18.20;;;;;;;;;;5089329;28;20028;-69
2024/03/12 00:29:55;;;;;;;49.25;18.45;;;;;;;;;;5093822;28;20111;-69
2024/03/12 00:32:41;;;;;;;46.08;17.33;;;;;;;;;;5078306;28;20203;-68
2024/03/12 00:35:28;;;;;;;45.00;17.10;;;;;;;;;;5073431;28;20103;-68
2024/03/12 00:38:16;;;;;;;44.35;18.50;;;;;;;;;;5087415;28;20038;-69
2024/03/12 00:41:03;;;;;;;49.55;19.23;;;;;;;;;;5093119;28;20020;-69
2024/03/12 00:43:52;;;;;;;53.00;18.88;;;;;;;;;;5090651;28;20035;-69
2024/03/12 00:46:38;;;;;;;47.95;17.90;;;;;;;;;;5093664;28;20028;-69
2024/03/12 00:49:25;;;;;;;45.67;16.83;;;;;;;;;;5094189;28;20030;-69
2024/03/12 00:52:11;;;;;;;44.08;17.65;;;;;;;;;;5093163;28;20030;-69
2024/03/12 00:54:57;;;;;;;57.95;19.45;;;;;;;;;;5091813;28;20020;-68
2024/03/12 00:57:44;;;;;;;51.08;16.77;;;;;;;;;;5087497;28;20027;-69
2024/03/12 01:00:33;;;;;;;47.20;16.85;;;;;;;;;;5094091;28;20059;-68
2024/03/12 01:03:19;;;;;;;44.45;16.75;;;;;;;;;;5093345;28;20024;-68
2024/03/12 01:06:05;;;;;;;44.38;16.10;;;;;;;;;;5093732;28;20089;-68
2024/03/12 01:08:51;;;;;;;43.72;16.75;;;;;;;;;;5093925;28;20488;-69
2024/03/12 01:11:37;;;;;;;53.75;17.73;;;;;;;;;;5094068;28;20374;-69
2024/03/12 01:14:23;;;;;;;45.15;17.80;;;;;;;;;;5073698;28;20082;-68
2024/03/12 01:17:08;;;;;;;43.47;17.45;;;;;;;;;;5076738;28;20024;-69
2024/03/12 01:19:54;;;;;;;50.92;17.20;;;;;;;;;;5094064;28;20558;-68
2024/03/12 01:22:39;;;;;;;44.95;16.80;;;;;;;;;;5092860;28;20020;-68
2024/03/12 01:25:25;;;;;;;38.83;17.20;;;;;;;;;;5088668;28;20035;-68
2024/03/12 01:28:12;;;;;;;47.28;16.52;;;;;;;;;;5093258;28;20503;-69
2024/03/12 01:31:00;;;;;;;43.97;16.80;;;;;;;;;;5093624;28;20394;-69
2024/03/12 01:33:46;;;;;;;47.10;17.15;;;;;;;;;;5092251;28;20024;-69
2024/03/12 01:36:34;;;;;;;49.30;16.88;;;;;;;;;;5094002;28;20024;-69
2024/03/12 01:39:28;;;;;;;47.47;16.75;;;;;;;;;;5093351;28;20107;-69
2024/03/12 01:42:13;;;;;;;46.03;17.13;;;;;;;;;;5093228;28;20023;-69
2024/03/12 01:44:59;;;;;;;41.33;16.15;;;;;;;;;;5094861;27;20035;-69
2024/03/12 01:47:45;;;;;;;40.88;15.15;;;;;;;;;;5093548;28;20051;-69
2024/03/12 01:50:32;;;;;;;41.38;16.45;;;;;;;;;;5104509;28;20440;-69
2024/03/12 01:53:17;;;;;;;43.80;16.27;;;;;;;;;;5093482;28;20020;-69
2024/03/12 01:56:03;;;;;;;44.75;16.30;;;;;;;;;;5091806;28;20031;-69
2024/03/12 01:58:49;;;;;;;49.38;16.63;;;;;;;;;;5093154;28;20112;-69
2024/03/12 02:01:36;;;;;;;37.97;14.57;;;;;;;;;;5092945;28;20020;-69
2024/03/12 02:04:22;;;;;;;36.88;15.60;;;;;;;;;;5092740;28;20035;-69
2024/03/12 02:07:11;;;;;;;41.38;15.80;;;;;;;;;;5093254;28;20397;-69
2024/03/12 02:09:57;;;;;;;47.17;15.32;;;;;;;;;;5093498;28;20027;-69
2024/03/12 02:12:46;;;;;;;37.25;15.10;;;;;;;;;;5094660;28;20016;-69
2024/03/12 02:15:33;;;;;;;50.63;16.33;;;;;;;;;;5093547;28;20055;-69
2024/03/12 02:18:19;;;;;;;42.05;15.05;;;;;;;;;;5093500;28;20103;-69
2024/03/12 02:21:05;;;;;;;44.13;15.43;;;;;;;;;;5094304;28;20024;-69
2024/03/12 02:23:53;;;;;;;49.83;15.02;;;;;;;;;;5092787;28;20044;-69
2024/03/12 02:26:38;;;;;;;41.63;16.45;;;;;;;;;;5092422;28;20107;-69
2024/03/12 02:29:24;;;;;;;41.17;15.80;;;;;;;;;;5092497;28;20386;-69
2024/03/12 02:32:10;;;;;;;40.88;15.90;;;;;;;;;;5094912;28;20020;-69
2024/03/12 02:34:56;;;;;;;36.80;14.65;;;;;;;;;;5092654;28;20454;-69
2024/03/12 02:37:41;;;;;;;45.60;14.98;;;;;;;;;;5093049;28;20500;-69
2024/03/12 02:40:27;;;;;;;39.08;14.32;;;;;;;;;;5092717;28;20024;-69
2024/03/12 02:43:13;;;;;;;42.15;14.70;;;;;;;;;;5092618;28;20079;-69
2024/03/12 02:45:59;;;;;;;36.85;14.75;;;;;;;;;;5093222;28;20446;-69
2024/03/12 02:48:44;;;;;;;44.05;15.65;;;;;;;;;;5094341;28;20089;-69
2024/03/12 02:52:26;;;;;;;40.05;15.18;;;;;;;;;;5094134;28;20016;-69
2024/03/12 02:55:12;;;;;;;36.67;14.07;;;;;;;;;;5091907;28;20023;-69
2024/03/12 02:57:58;;;;;;;40.38;14.90;;;;;;;;;;5093155;28;20024;-69
2024/03/12 03:00:43;;;;;;;41.45;14.75;;;;;;;;;;5093007;28;20058;-69
2024/03/12 03:03:29;;;;;;;42.35;16.00;;;;;;;;;;5093099;28;20028;-69
2024/03/12 03:06:17;;;;;;;45.95;17.25;;;;;;;;;;5093963;28;20030;-69
2024/03/12 03:09:05;;;;;;;43.13;14.77;;;;;;;;;;5093393;28;20108;-69
2024/03/12 03:11:51;;;;;;;40.60;15.15;;;;;;;;;;5092137;28;20034;-69
2024/03/12 03:14:36;;;;;;;37.08;13.75;;;;;;;;;;5092644;28;20020;-69
2024/03/12 03:17:22;;;;;;;39.10;15.35;;;;;;;;;;5097471;28;20504;-69
2024/03/12 03:20:11;;;;;;;40.58;15.15;;;;;;;;;;5097324;27;20493;-69
2024/03/12 03:22:57;;;;;;;37.20;14.90;;;;;;;;;;5095685;28;20036;-69
2024/03/12 03:25:43;;;;;;;40.45;15.95;;;;;;;;;;5097324;28;20052;-69
2024/03/12 03:28:28;;;;;;;42.38;16.02;;;;;;;;;;5097562;27;20568;-69
2024/03/12 03:31:14;;;;;;;41.58;15.48;;;;;;;;;;5097183;27;20403;-69
2024/03/12 03:34:04;;;;;;;52.67;16.63;;;;;;;;;;5095764;28;20020;-69
2024/03/12 03:36:49;;;;;;;38.60;14.98;;;;;;;;;;5095689;28;20447;-69
2024/03/12 03:39:36;;;;;;;42.92;17.00;;;;;;;;;;5094869;28;20028;-69
2024/03/12 03:42:22;;;;;;;41.80;14.18;;;;;;;;;;5095503;28;20032;-69
2024/03/12 03:45:08;;;;;;;43.72;14.95;;;;;;;;;;5095687;28;20138;-69
2024/03/12 03:47:53;;;;;;;36.60;14.68;;;;;;;;;;5095216;28;20058;-69
2024/03/12 03:50:40;;;;;;;35.85;14.68;;;;;;;;;;5094394;28;20024;-68
2024/03/12 03:53:27;;;;;;;33.38;14.27;;;;;;;;;;5095611;28;20024;-69
2024/03/12 03:56:15;;;;;;;42.80;13.75;;;;;;;;;;5096020;28;20016;-69
2024/03/12 03:59:01;;;;;;;39.85;15.90;;;;;;;;;;5093815;28;20028;-69
2024/03/12 04:01:49;;;;;;;50.88;16.42;;;;;;;;;;5094918;28;20016;-69
2024/03/12 04:04:34;;;;;;;34.22;14.52;;;;;;;;;;5095393;28;20115;-69
2024/03/12 04:07:20;;;;;;;45.33;14.60;;;;;;;;;;5096571;27;20024;-69
2024/03/12 04:10:10;;;;;;;41.97;15.00;;;;;;;;;;5094139;28;20031;-69
2024/03/12 04:12:56;;;;;;;36.28;15.27;;;;;;;;;;5095254;28;20027;-69
2024/03/12 04:15:41;;;;;;;36.13;14.27;;;;;;;;;;5094688;28;20024;-69
2024/03/12 04:18:27;;;;;;;41.53;14.85;;;;;;;;;;5094989;28;20020;-69
2024/03/12 04:21:13;;;;;;;33.35;13.90;;;;;;;;;;5094840;28;20121;-69
2024/03/12 04:23:58;;;;;;;36.05;14.13;;;;;;;;;;5096463;27;20051;-69
2024/03/12 04:26:45;;;;;;;41.50;15.20;;;;;;;;;;5094153;28;20022;-69
2024/03/12 04:29:31;;;;;;;44.22;15.60;;;;;;;;;;5091206;28;20150;-68
2024/03/12 04:32:16;;;;;;;41.95;14.95;;;;;;;;;;5090094;28;20501;-68
2024/03/12 04:35:06;;;;;;;38.33;14.38;;;;;;;;;;5076067;28;20028;-68
2024/03/12 04:37:55;;;;;;;44.63;15.73;;;;;;;;;;5093873;28;20408;-68
2024/03/12 04:40:41;;;;;;;38.00;13.52;;;;;;;;;;5093971;28;20012;-69
2024/03/12 04:43:27;;;;;;;35.88;14.77;;;;;;;;;;5094057;28;20030;-69
2024/03/12 04:46:13;;;;;;;35.72;15.00;;;;;;;;;;5093863;28;20024;-68
2024/03/12 04:48:59;;;;;;;43.75;14.48;;;;;;;;;;5093094;28;20491;-68
2024/03/12 04:51:44;;;;;;;39.78;16.13;;;;;;;;;;5095483;28;20016;-68
2024/03/12 04:54:30;;;;;;;38.33;15.48;;;;;;;;;;5094507;28;20085;-69
2024/03/12 04:57:15;;;;;;;37.28;14.32;;;;;;;;;;5074534;28;20028;-68
2024/03/12 05:00:13;;;;;;;44.55;14.77;;;;;;;;;;5083761;28;20051;-68
2024/03/12 05:03:00;;;;;;;36.00;15.82;;;;;;;;;;5092765;28;20481;-69
2024/03/12 05:05:45;;;;;;;46.58;16.48;;;;;;;;;;5092582;28;20118;-68
2024/03/12 05:08:31;;;;;;;39.17;15.63;;;;;;;;;;5078051;28;20135;-68
2024/03/12 05:11:17;;;;;;;42.30;15.23;;;;;;;;;;5072306;28;20052;-68
2024/03/12 05:14:03;;;;;;;47.90;15.95;;;;;;;;;;5089165;28;20024;-68
2024/03/12 05:16:50;;;;;;;40.38;15.13;;;;;;;;;;5093653;28;20482;-68
2024/03/12 05:19:36;;;;;;;38.45;16.98;;;;;;;;;;5073689;28;20028;-69
2024/03/12 05:22:24;;;;;;;46.55;16.77;;;;;;;;;;5072363;28;20041;-70
2024/03/12 05:25:19;;;;;;;41.97;16.38;;;;;;;;;;5082657;28;20029;-70
2024/03/12 05:28:07;;;;;;;39.85;15.85;;;;;;;;;;5072165;28;20468;-70
2024/03/12 05:30:53;;;;;;;47.67;16.80;;;;;;;;;;5093035;28;20020;-69
2024/03/12 05:33:39;;;;;;;43.65;16.60;;;;;;;;;;5093274;28;20032;-70
2024/03/12 05:36:25;;;;;;;38.90;15.90;;;;;;;;;;5093559;28;20048;-69
2024/03/12 05:48:23;;;;;;;44.28;15.18;;;;;;;;;;5092196;28;20481;-69
2024/03/12 05:51:09;;;;;;;51.65;16.10;;;;;;;;;;5086581;28;20402;-70
2024/03/12 05:53:54;;;;;;;52.20;16.60;;;;;;;;;;5071805;28;20024;-70
2024/03/12 05:56:40;;;;;;;46.15;15.73;;;;;;;;;;5093039;28;20057;-70
2024/03/12 05:59:26;;;;;;;49.15;17.63;;;;;;;;;;5092429;28;20039;-70
2024/03/12 06:02:11;;;;;;;53.10;17.67;;;;;;;;;;5072511;28;20031;-70
2024/03/12 06:04:57;;;;;;;44.10;15.93;;;;;;;;;;5071415;28;20029;-70
2024/03/12 06:07:48;;;;;;;55.53;17.75;;;;;;;;;;5093382;28;20081;-69
2024/03/12 06:10:34;;;;;;;48.30;19.02;;;;;;;;;;5091360;28;20398;-70
2024/03/12 06:13:22;;;;;;;55.05;18.15;;;;;;;;;;5093256;28;20032;-70
2024/03/12 06:16:08;;;;;;;52.85;18.10;;;;;;;;;;5091866;28;20172;-70
2024/03/12 06:18:54;;;;;;;49.67;17.98;;;;;;;;;;5092403;28;20024;-70
2024/03/12 06:21:39;;;;;;;45.63;17.55;;;;;;;;;;5091799;28;20031;-70
2024/03/12 06:24:25;;;;;;;53.88;15.85;;;;;;;;;;5090682;28;20024;-70
2024/03/12 06:27:11;;;;;;;49.25;16.95;;;;;;;;;;5092197;28;20076;-70
2024/03/12 06:29:57;;;;;;;51.03;17.60;;;;;;;;;;5091609;28;20020;-69
2024/03/12 06:32:42;;;;;;;49.05;16.80;;;;;;;;;;5090406;28;20123;-70
2024/03/12 06:35:28;;;;;;;54.63;17.10;;;;;;;;;;5090866;28;20030;-70
2024/03/12 06:38:15;;;;;;;47.58;18.08;;;;;;;;;;5093380;28;20019;-69
2024/03/12 06:41:05;;;;;;;49.03;16.75;;;;;;;;;;5091428;28;20427;-70
2024/03/12 06:43:51;;;;;;;45.53;14.90;;;;;;;;;;5090348;28;20028;-70
2024/03/12 06:46:38;;;;;;;47.42;16.10;;;;;;;;;;5093554;28;20406;-70
2024/03/12 06:49:24;;;;;;;49.53;16.13;;;;;;;;;;5091423;28;20024;-70
2024/03/12 06:52:14;;;;;;;48.50;15.48;;;;;;;;;;5074853;28;20052;-70
2024/03/12 06:55:01;;;;;;;52.00;16.65;;;;;;;;;;5083254;28;20028;-70
2024/03/12 06:57:52;;;;;;;43.85;15.80;;;;;;;;;;5095479;28;20035;-70
2024/03/12 07:00:40;;;;;;;50.35;15.55;;;;;;;;;;5095648;28;20020;-70
2024/03/12 07:03:27;;;;;;;49.08;15.93;;;;;;;;;;5093586;28;20027;-70
2024/03/12 07:06:13;;;;;;;55.15;16.30;;;;;;;;;;5093891;28;20020;-70
2024/03/12 07:09:03;;;;;;;45.20;15.60;;;;;;;;;;5094906;28;20409;-70
2024/03/12 07:11:48;;;;;;;46.67;14.77;;;;;;;;;;5094667;28;20016;-70
2024/03/12 07:14:42;;;;;;;52.35;15.07;;;;;;;;;;5093898;28;20031;-70
2024/03/12 07:17:28;;;;;;;50.83;16.38;;;;;;;;;;5095049;28;20020;-70
2024/03/12 07:20:15;;;;;;;51.65;17.73;;;;;;;;;;5095824;28;20504;-70
2024/03/12 07:23:01;;;;;;;44.47;14.57;;;;;;;;;;5095102;28;20065;-70
2024/03/12 07:25:47;;;;;;;57.22;14.82;;;;;;;;;;5094252;28;20102;-70
2024/03/12 07:28:32;;;;;;;47.28;14.57;;;;;;;;;;5095034;28;20021;-70
2024/03/12 07:31:19;;;;;;;51.42;16.10;;;;;;;;;;5095904;28;20023;-69
2024/03/12 07:34:05;;;;;;;50.83;17.30;;;;;;;;;;5095168;28;20108;-69
2024/03/12 07:36:51;;;;;;;47.75;15.40;;;;;;;;;;5094937;28;20035;-69
2024/03/12 07:39:38;;;;;;;51.38;15.70;;;;;;;;;;5095728;28;20024;-69
2024/03/12 07:42:23;;;;;;;44.80;15.98;;;;;;;;;;5094412;28;20497;-70
2024/03/12 07:45:11;;;;;;;45.08;15.77;;;;;;;;;;5095098;28;20042;-69
2024/03/12 07:47:56;;;;;;;47.05;15.50;;;;;;;;;;5095069;28;20028;-69
2024/03/12 07:50:43;;;;;;;51.15;15.60;;;;;;;;;;5094614;28;20560;-70
2024/03/12 07:53:29;;;;;;;46.65;15.50;;;;;;;;;;5095246;28;20119;-69
2024/03/12 07:56:15;;;;;;;44.30;14.02;;;;;;;;;;5095047;28;20102;-69
2024/03/12 07:59:01;;;;;;;51.08;15.93;;;;;;;;;;5096001;28;20016;-69
2024/03/12 08:01:49;;;;;;;53.20;17.20;;;;;;;;;;5094026;28;20012;-70
2024/03/12 08:04:34;;;;;;;52.47;16.85;;;;;;;;;;5094478;28;20028;-70
2024/03/12 08:07:20;;;;;;;49.22;15.45;;;;;;;;;;5093047;28;20051;-69
2024/03/12 08:10:08;;;;;;;48.97;16.60;;;;;;;;;;5095179;28;20016;-69
2024/03/12 08:12:54;;;;;;;49.28;16.55;;;;;;;;;;5094450;28;20099;-69
2024/03/12 08:15:40;;;;;;;59.72;17.85;;;;;;;;;;5096007;28;20016;-69
2024/03/12 08:18:26;;;;;;;42.97;14.88;;;;;;;;;;5095434;28;20107;-70
2024/03/12 08:21:12;;;;;;;39.85;13.48;;;;;;;;;;5092955;28;20024;-70
2024/03/12 08:23:58;;;;;;;43.50;14.88;;;;;;;;;;5094986;28;20074;-69
2024/03/12 08:26:44;;;;;;;44.78;14.63;;;;;;;;;;5094740;28;20020;-70
2024/03/12 08:29:30;;;;;;;45.22;15.18;;;;;;;;;;5094950;28;20035;-69
2024/03/12 08:32:16;;;;;;;49.28;15.05;;;;;;;;;;5094026;28;20020;-70
2024/03/12 08:35:05;;;;;;;41.03;16.48;;;;;;;;;;5094424;28;20485;-69
2024/03/12 08:37:50;;;;;;;55.28;16.83;;;;;;;;;;5094927;28;20446;-69
2024/03/12 08:40:36;;;;;;;52.92;16.67;;;;;;;;;;5094919;28;20129;-69
2024/03/12 08:43:22;;;;;;;50.25;15.68;;;;;;;;;;5093953;28;20066;-69
2024/03/12 08:46:08;;;;;;;43.50;16.13;;;;;;;;;;5095027;28;20024;-69
2024/03/12 08:48:53;;;;;;;57.42;16.42;;;;;;;;;;5094075;28;20031;-69
2024/03/12 08:51:39;;;;;;;49.70;15.38;;;;;;;;;;5093909;28;20024;-69
2024/03/12 08:54:25;;;;;;;47.53;16.20;;;;;;;;;;5093294;28;20024;-70
2024/03/12 08:57:10;;;;;;;47.78;16.20;;;;;;;;;;5094814;28;20036;-69
2024/03/12 08:59:56;;;;;;;44.28;14.40;;;;;;;;;;5093683;28;20027;-69
2024/03/12 09:02:42;;;;;;;52.88;17.02;;;;;;;;;;5094780;28;20024;-70
2024/03/12 09:05:27;;;;;;;44.92;15.98;;;;;;;;;;5093515;28;20035;-70
2024/03/12 09:08:13;;;;;;;51.70;15.35;;;;;;;;;;5093013;28;20024;-70
2024/03/12 09:10:59;;;;;;;46.03;15.88;;;;;;;;;;5092970;28;20016;-69
2024/03/12 09:13:47;;;;;;;44.35;14.60;;;;;;;;;;5092999;28;20065;-69
2024/03/12 09:16:37;;;;;;;45.38;14.90;;;;;;;;;;5091973;28;20110;-69
2024/03/12 09:19:24;;;;;;;43.40;14.77;;;;;;;;;;5094170;28;20027;-69
2024/03/12 09:22:10;;;;;;;46.83;16.05;;;;;;;;;;5093351;28;20131;-70
2024/03/12 09:24:55;;;;;;;50.20;14.70;;;;;;;;;;5094260;28;20109;-69
2024/03/12 09:27:41;;;;;;;52.72;16.05;;;;;;;;;;5094365;28;20019;-70
2024/03/12 09:30:27;;;;;;;51.65;17.15;;;;;;;;;;5093993;28;20020;-70
2024/03/12 09:33:13;;;;;;;42.05;16.38;;;;;;;;;;5093488;28;20020;-69
2024/03/12 09:35:58;;;;;;;51.05;16.08;;;;;;;;;;5093730;28;20031;-70
2024/03/12 09:38:46;;;;;;;56.75;17.08;;;;;;;;;;5094655;28;20027;-70
2024/03/12 09:41:32;;;;;;;46.45;16.55;;;;;;;;;;5093003;28;20020;-70
2024/03/12 09:44:20;;;;;;;51.22;16.27;;;;;;;;;;5093009;28;20082;-70
2024/03/12 09:47:08;;;;;;;43.70;14.65;;;;;;;;;;5093269;28;20031;-70
2024/03/12 09:49:55;;;;;;;50.05;16.05;;;;;;;;;;5092190;28;20036;-71
2024/03/12 09:52:41;;;;;;;55.17;17.17;;;;;;;;;;5092169;28;20020;-69
2024/03/12 09:55:28;;;;;;;51.08;17.17;;;;;;;;;;5093987;28;20556;-70
2024/03/12 09:58:13;;;;;;;47.45;15.80;;;;;;;;;;5092810;28;20038;-70
2024/03/12 10:01:02;;;;;;;54.55;17.40;;;;;;;;;;5092744;28;20020;-70
2024/03/12 10:03:48;;;;;;;47.08;17.27;;;;;;;;;;5092651;28;20086;-71
2024/03/12 10:06:35;;;;;;;51.05;16.55;;;;;;;;;;5094304;28;20077;-70
2024/03/12 10:09:27;;;;;;;49.25;16.50;;;;;;;;;;5093008;28;20028;-70
2024/03/12 10:12:18;;;;;;;48.65;16.23;;;;;;;;;;5090993;28;20396;-70
2024/03/12 10:15:09;;;;;;;52.70;15.98;;;;;;;;;;5092199;28;20024;-70
2024/03/12 10:18:03;;;;;;;51.05;15.95;;;;;;;;;;5092420;28;20024;-69
2024/03/12 10:20:51;;;;;;;52.60;17.65;;;;;;;;;;5090930;28;20031;-70
2024/03/12 10:23:37;;;;;;;49.42;16.45;;;;;;;;;;5092758;28;20446;-69
2024/03/12 10:26:27;;;;;;;52.13;17.38;;;;;;;;;;5097079;28;20028;-69
2024/03/12 10:29:16;;;;;;;55.15;17.75;;;;;;;;;;5097288;28;20024;-69
2024/03/12 10:32:18;;;;;;;51.45;17.52;;;;;;;;;;5082638;28;20099;-70
2024/03/12 10:35:17;;;;;;;52.45;17.00;;;;;;;;;;5074888;28;20029;-70
2024/03/12 10:38:02;;;;;;;49.95;16.33;;;;;;;;;;5075885;28;20067;-70
2024/03/12 10:40:48;;;;;;;44.20;16.50;;;;;;;;;;5076970;28;20029;-70
2024/03/12 10:43:34;;;;;;;51.85;16.08;;;;;;;;;;5075554;28;20020;-69
2024/03/12 10:46:21;;;;;;;49.78;17.02;;;;;;;;;;5088328;28;20385;-70
2024/03/12 10:49:11;;;;;;;44.55;15.85;;;;;;;;;;5073929;28;20159;-71
2024/03/12 10:51:57;;;;;;;46.00;16.90;;;;;;;;;;5075428;28;20063;-70
2024/03/12 10:54:45;;;;;;;47.25;15.27;;;;;;;;;;5083971;28;20024;-70
2024/03/12 10:57:31;;;;;;;44.30;15.55;;;;;;;;;;5095195;28;20034;-70
2024/03/12 11:00:20;;;;;;;43.70;15.45;;;;;;;;;;5094944;28;20024;-70
2024/03/12 11:03:10;;;;;;;51.60;17.20;;;;;;;;;;5094975;28;20115;-70
2024/03/12 11:05:56;;;;;;;46.22;16.08;;;;;;;;;;5095148;28;20130;-70
2024/03/12 11:08:43;;;;;;;43.15;15.85;;;;;;;;;;5094994;28;20028;-70
2024/03/12 11:11:29;;;;;;;46.75;16.08;;;;;;;;;;5093634;28;20447;-70
2024/03/12 11:14:15;;;;;;;51.63;16.40;;;;;;;;;;5094862;28;20038;-70
2024/03/12 11:17:02;;;;;;;48.13;16.83;;;;;;;;;;5094515;28;20116;-70
2024/03/12 11:19:47;;;;;;;48.20;16.73;;;;;;;;;;5095567;28;20057;-70
2024/03/12 11:22:36;;;;;;;50.97;17.48;;;;;;;;;;5094928;28;20490;-69
2024/03/12 11:25:32;;;;;;;48.55;15.20;;;;;;;;;;5094789;28;20111;-69
2024/03/12 11:28:26;;;;;;;42.70;15.48;;;;;;;;;;5094863;28;20030;-69
2024/03/12 11:31:11;;;;;;;49.83;15.45;;;;;;;;;;5094004;28;20449;-69
2024/03/12 11:33:57;;;;;;;39.03;16.17;;;;;;;;;;5090609;28;20040;-69
2024/03/12 11:36:46;;;;;;;54.08;18.15;;;;;;;;;;5092374;28;20028;-69
2024/03/12 11:39:31;;;;;;;53.00;17.00;;;;;;;;;;5093478;28;20036;-69
2024/03/12 11:42:17;;;;;;;49.60;17.83;;;;;;;;;;5092630;28;20024;-69
2024/03/12 11:45:03;;;;;;;52.22;17.02;;;;;;;;;;5092417;28;20077;-69
2024/03/12 11:47:54;;;;;;;52.38;16.55;;;;;;;;;;5092831;28;20055;-69
2024/03/12 11:50:42;;;;;;;52.63;18.83;;;;;;;;;;5092833;28;20024;-69
2024/03/12 11:53:32;;;;;;;53.88;18.40;;;;;;;;;;5089178;28;20047;-68
2024/03/12 11:56:21;;;;;;;51.50;17.88;;;;;;;;;;5072216;28;20028;-69
2024/03/12 11:59:07;;;;;;;53.10;19.02;;;;;;;;;;5073946;28;20046;-69
2024/03/12 12:01:53;;;;;;;53.00;18.02;;;;;;;;;;5072554;28;20027;-69
2024/03/12 12:04:38;;;;;;;55.40;17.90;;;;;;;;;;5072091;28;20111;-66
2024/03/12 12:07:25;;;;;;;54.00;21.58;;;;;;;;;;5087509;28;20053;-69
2024/03/12 12:10:11;;;;;;;50.15;19.17;;;;;;;;;;5092280;28;20031;-69
2024/03/12 12:12:57;;;;;;;49.10;18.50;;;;;;;;;;5093002;28;20036;-69
2024/03/12 12:16:04;;;;;;;48.85;17.77;;;;;;;;;;5092942;28;20027;-68
2024/03/12 12:18:49;;;;;;;50.60;18.48;;;;;;;;;;5092428;28;20039;-69
2024/03/12 12:21:35;;;;;;;47.13;16.85;;;;;;;;;;5092954;28;20073;-69
2024/03/12 12:24:24;;;;;;;45.63;16.75;;;;;;;;;;5091818;28;20077;-69
2024/03/12 12:27:11;;;;;;;45.20;19.15;;;;;;;;;;5092647;28;20031;-69
2024/03/12 12:29:57;;;;;;;52.28;18.38;;;;;;;;;;5091355;28;20400;-69
2024/03/12 12:32:43;;;;;;;60.35;19.83;;;;;;;;;;5092679;28;20023;-69
2024/03/12 12:35:31;;;;;;;47.22;19.33;;;;;;;;;;5091236;28;20028;-69
2024/03/12 12:38:17;;;;;;;45.95;19.27;;;;;;;;;;5092608;28;20031;-69
2024/03/12 12:41:04;;;;;;;52.03;18.95;;;;;;;;;;5091043;28;20032;-69
2024/03/12 12:43:53;;;;;;;48.67;21.00;;;;;;;;;;5091929;28;20032;-69
2024/03/12 12:46:39;;;;;;;54.75;18.15;;;;;;;;;;5092708;28;20020;-70
2024/03/12 12:49:27;;;;;;;49.70;18.38;;;;;;;;;;5084790;28;20028;-69
2024/03/12 12:52:13;;;;;;;52.53;19.35;;;;;;;;;;5071926;28;20024;-68
2024/03/12 12:54:59;;;;;;;47.42;18.85;;;;;;;;;;5079716;28;20051;-69
2024/03/12 12:57:45;;;;;;;41.38;17.50;;;;;;;;;;5092315;28;20085;-70
2024/03/12 13:00:37;;;;;;;39.63;16.50;;;;;;;;;;5092216;28;20024;-69
2024/03/12 13:03:22;;;;;;;40.85;17.77;;;;;;;;;;5091369;28;20036;-69
2024/03/12 13:06:15;;;;;;;45.28;17.38;;;;;;;;;;5091458;28;20035;-69
2024/03/12 13:09:03;;;;;;;44.78;17.73;;;;;;;;;;5091321;28;20401;-69
2024/03/12 13:11:51;;;;;;;46.40;19.48;;;;;;;;;;5090233;28;20482;-70
2024/03/12 13:14:36;;;;;;;42.58;18.08;;;;;;;;;;5092033;28;20067;-69
2024/03/12 13:17:22;;;;;;;48.38;18.20;;;;;;;;;;5091842;28;20035;-69
2024/03/12 13:20:08;;;;;;;49.10;19.15;;;;;;;;;;5092447;28;20024;-70
2024/03/12 13:22:54;;;;;;;48.88;20.10;;;;;;;;;;5090973;28;20024;-69
2024/03/12 13:25:42;;;;;;;48.13;18.92;;;;;;;;;;5084647;28;20112;-69
2024/03/12 13:28:28;;;;;;;41.58;17.17;;;;;;;;;;5070484;28;20107;-69
2024/03/12 13:31:17;;;;;;;47.97;18.23;;;;;;;;;;5070423;28;20104;-69
2024/03/12 13:34:02;;;;;;;40.55;17.63;;;;;;;;;;5072654;28;20029;-69
2024/03/12 13:36:48;;;;;;;50.67;19.33;;;;;;;;;;5070508;28;20024;-69
2024/03/12 13:39:34;;;;;;;50.17;20.38;;;;;;;;;;5071954;28;20020;-69
2024/03/12 13:42:19;;;;;;;44.63;18.60;;;;;;;;;;5070809;28;20318;-69
2024/03/12 13:45:05;;;;;;;40.40;18.48;;;;;;;;;;5071594;28;20507;-69
2024/03/12 13:47:51;;;;;;;46.47;17.98;;;;;;;;;;5071926;28;20028;-69
2024/03/12 13:50:38;;;;;;;56.67;19.25;;;;;;;;;;5070674;28;20074;-70
2024/03/12 13:53:27;;;;;;;53.83;19.85;;;;;;;;;;5070807;28;20028;-69
2024/03/12 13:56:12;;;;;;;47.15;18.02;;;;;;;;;;5057382;28;20450;-69
2024/03/12 13:58:58;;;;;;;51.58;20.35;;;;;;;;;;5068866;28;20028;-68
2024/03/12 14:01:45;;;;;;;52.45;20.33;;;;;;;;;;5069612;28;20017;-69
2024/03/12 14:04:31;;;;;;;47.72;20.83;;;;;;;;;;5069257;28;20110;-69
2024/03/12 14:07:19;;;;;;;54.28;21.52;;;;;;;;;;5070704;28;20478;-69
2024/03/12 14:10:07;;;;;;;56.40;21.83;;;;;;;;;;5070353;28;20016;-69
2024/03/12 14:12:53;;;;;;;52.17;19.85;;;;;;;;;;5071681;28;20051;-69
2024/03/12 14:15:39;;;;;;;54.03;22.17;;;;;;;;;;5070382;28;20033;-69
2024/03/12 14:18:26;;;;;;;57.72;22.90;;;;;;;;;;5068827;28;20170;-69
2024/03/12 14:21:13;;;;;;;52.40;22.73;;;;;;;;;;5056599;28;20029;-69
2024/03/12 14:23:59;;;;;;;50.17;20.77;;;;;;;;;;5070559;28;20444;-69
2024/03/12 14:26:44;;;;;;;53.17;21.80;;;;;;;;;;5069847;28;20027;-69
2024/03/12 14:29:30;;;;;;;59.25;21.00;;;;;;;;;;5069983;28;20029;-68
2024/03/12 14:32:16;;;;;;;56.33;21.05;;;;;;;;;;5070340;28;20025;-69
2024/03/12 14:35:01;;;;;;;50.85;20.83;;;;;;;;;;5071217;28;20020;-70
2024/03/12 14:37:47;;;;;;;50.53;20.80;;;;;;;;;;5070478;28;20063;-69
2024/03/12 14:40:33;;;;;;;54.17;22.55;;;;;;;;;;5071300;28;20028;-69
2024/03/12 14:43:19;;;;;;;54.40;22.30;;;;;;;;;;5072355;28;20029;-69
2024/03/12 14:46:04;;;;;;;50.60;22.02;;;;;;;;;;5068531;28;20475;-69
2024/03/12 14:48:52;;;;;;;48.88;21.40;;;;;;;;;;5070172;28;20101;-69
2024/03/12 14:51:39;;;;;;;51.35;20.52;;;;;;;;;;5070167;28;20433;-69
2024/03/12 14:54:24;;;;;;;53.58;21.52;;;;;;;;;;5070240;28;20033;-69
2024/03/12 14:57:10;;;;;;;47.35;19.77;;;;;;;;;;5070108;28;20450;-69
2024/03/12 14:59:56;;;;;;;48.63;20.73;;;;;;;;;;5070954;28;20027;-69
2024/03/12 15:02:42;;;;;;;54.13;21.85;;;;;;;;;;5071246;28;20101;-69
2024/03/12 15:05:27;;;;;;;53.50;22.38;;;;;;;;;;5070110;28;20040;-69
2024/03/12 15:08:13;;;;;;;48.88;19.75;;;;;;;;;;5070446;28;20028;-70
2024/03/12 15:10:59;;;;;;;60.97;23.55;;;;;;;;;;5072949;28;20272;-70
2024/03/12 15:13:45;;;;;;;55.47;20.55;;;;;;;;;;5073869;28;20020;-70
2024/03/12 15:16:31;;;;;;;53.55;21.50;;;;;;;;;;5073128;28;20460;-69
2024/03/12 15:19:19;;;;;;;56.30;22.00;;;;;;;;;;5072438;28;20032;-70
2024/03/12 15:22:05;;;;;;;55.15;23.30;;;;;;;;;;5074010;28;20024;-69
2024/03/12 15:24:51;;;;;;;53.15;21.40;;;;;;;;;;5072083;28;20024;-70
2024/03/12 15:27:41;;;;;;;58.17;22.10;;;;;;;;;;5074127;28;20043;-69
2024/03/12 15:30:27;;;;;;;54.70;21.15;;;;;;;;;;5072947;28;20306;-69
2024/03/12 15:33:17;;;;;;;52.55;21.00;;;;;;;;;;5077160;28;20177;-69
2024/03/12 15:36:05;;;;;;;53.38;21.25;;;;;;;;;;5116177;28;20053;-70
2024/03/12 15:38:50;;;;;;;55.08;21.95;;;;;;;;;;5115587;28;20077;-69
2024/03/12 15:41:36;;;;;;;54.70;22.20;;;;;;;;;;5115125;28;20123;-70
2024/03/12 15:44:22;;;;;;;56.80;21.95;;;;;;;;;;5116198;28;20019;-69
2024/03/12 15:47:07;;;;;;;56.38;21.95;;;;;;;;;;5116898;28;20019;-69
2024/03/12 15:49:54;;;;;;;59.17;21.75;;;;;;;;;;5116516;27;20488;-69
2024/03/12 15:52:40;;;;;;;58.28;23.45;;;;;;;;;;5116056;28;20480;-70
2024/03/12 15:55:26;;;;;;;58.03;24.40;;;;;;;;;;5116103;28;20038;-70
2024/03/12 15:58:15;;;;;;;65.90;24.67;;;;;;;;;;5116310;28;20031;-70
2024/03/12 16:01:01;;;;;;;67.55;25.52;;;;;;;;;;5114121;28;20063;-70
2024/03/12 16:03:47;;;;;;;61.78;24.70;;;;;;;;;;5116269;27;20535;-70
2024/03/12 16:06:34;;;;;;;64.63;24.00;;;;;;;;;;5114547;28;20027;-69
2024/03/12 16:09:20;;;;;;;61.10;23.98;;;;;;;;;;5114292;28;20024;-70
2024/03/12 16:12:06;;;;;;;56.30;23.67;;;;;;;;;;5113063;28;20038;-70
2024/03/12 16:14:52;;;;;;;59.45;23.55;;;;;;;;;;5115295;28;20027;-70
2024/03/12 16:17:38;;;;;;;61.70;23.55;;;;;;;;;;5116379;27;20089;-69
2024/03/12 16:20:24;;;;;;;59.70;24.90;;;;;;;;;;5113422;28;20441;-69